createdAt,value
2023-03-13T00:01:12.780Z,124.03
2023-03-13T00:03:40.411Z,124.90
2023-03-13T00:06:09.738Z,120.20
2023-03-13T00:08:37.376Z,120.70
2023-03-13T00:11:06.158Z,118.20
2023-03-13T00:13:34.273Z,120.37
2023-03-13T00:16:02.556Z,114.27
2023-03-13T00:18:30.383Z,125.03
2023-03-13T00:21:01.741Z,120.37
2023-03-13T00:23:31.243Z,116.30
2023-03-13T00:25:59.505Z,116.43
2023-03-13T00:28:30.053Z,114.53
2023-03-13T00:31:03.244Z,119.17
2023-03-13T00:33:32.432Z,115.43
2023-03-13T00:36:01.078Z,125.00
2023-03-13T00:38:30.917Z,115.83
2023-03-13T00:41:02.973Z,116.53
2023-03-13T00:43:30.994Z,119.40
2023-03-13T00:45:58.916Z,119.47
2023-03-13T00:48:26.764Z,118.13
2023-03-13T00:50:55.161Z,120.70
2023-03-13T00:53:22.839Z,118.03
2023-03-13T00:55:57.767Z,121.70
2023-03-13T00:58:28.084Z,118.07
2023-03-13T01:00:55.994Z,120.27
2023-03-13T01:03:26.786Z,126.17
2023-03-13T01:05:58.388Z,120.07
2023-03-13T01:08:26.433Z,119.47
2023-03-13T01:11:00.348Z,116.73
2023-03-13T01:13:28.547Z,117.90
2023-03-13T01:15:56.355Z,119.30
2023-03-13T01:18:24.146Z,115.57
2023-03-13T01:20:51.793Z,121.97
2023-03-13T01:23:19.623Z,118.27
2023-03-13T01:25:47.575Z,118.40
2023-03-13T01:28:16.589Z,123.30
2023-03-13T01:30:44.253Z,118.13
2023-03-13T01:33:11.968Z,119.80
2023-03-13T01:35:39.672Z,122.20
2023-03-13T01:38:07.628Z,124.17
2023-03-13T01:40:41.056Z,118.87
2023-03-13T01:43:26.868Z,122.50
2023-03-13T01:45:59.300Z,128.00
2023-03-13T01:48:37.763Z,131.23
2023-03-13T01:51:09.723Z,127.10
2023-03-13T01:53:40.453Z,129.40
2023-03-13T01:56:12.721Z,126.13
2023-03-13T01:58:42.026Z,132.33
2023-03-13T02:01:10.398Z,130.27
2023-03-13T02:03:38.763Z,130.60
2023-03-13T02:06:08.478Z,126.33
2023-03-13T02:08:41.732Z,124.77
2023-03-13T02:11:18.624Z,128.30
2023-03-13T02:13:48.796Z,129.40
2023-03-13T02:16:17.404Z,128.37
2023-03-13T02:18:45.653Z,127.67
2023-03-13T02:21:33.241Z,134.80
2023-03-13T02:24:08.512Z,132.03
2023-03-13T02:26:37.602Z,132.80
2023-03-13T02:29:05.641Z,135.10
2023-03-13T02:31:33.436Z,136.37
2023-03-13T02:34:02.860Z,142.70
2023-03-13T02:36:31.849Z,143.47
2023-03-13T02:39:05.088Z,138.57
2023-03-13T02:41:35.350Z,142.00
2023-03-13T02:44:05.736Z,139.17
2023-03-13T02:46:46.301Z,145.23
2023-03-13T02:49:26.218Z,152.33
2023-03-13T02:51:56.118Z,150.10
2023-03-13T02:54:28.346Z,156.47
2023-03-13T02:56:58.608Z,154.23
2023-03-13T02:59:27.875Z,160.23
2023-03-13T03:01:55.770Z,150.97
2023-03-13T03:04:25.328Z,153.40
2023-03-13T03:06:53.874Z,154.87
2023-03-13T03:09:22.171Z,149.93
2023-03-13T03:11:50.581Z,152.10
2023-03-13T03:14:18.543Z,157.40
2023-03-13T03:16:48.072Z,152.67
2023-03-13T03:19:15.793Z,160.00
2023-03-13T03:21:43.869Z,155.70
2023-03-13T03:24:11.596Z,157.30
2023-03-13T03:26:39.233Z,163.80
2023-03-13T03:29:08.151Z,159.93
2023-03-13T03:31:35.749Z,155.00
2023-03-13T03:34:04.708Z,157.00
2023-03-13T03:36:32.317Z,164.57
2023-03-13T03:39:00.173Z,157.73
2023-03-13T03:41:27.859Z,157.53
2023-03-13T03:43:55.518Z,163.13
2023-03-13T03:46:23.182Z,155.57
2023-03-13T03:48:50.816Z,159.37
2023-03-13T03:51:19.781Z,158.73
2023-03-13T03:53:47.381Z,158.73
2023-03-13T03:56:15.338Z,153.50
2023-03-13T03:58:42.947Z,159.20
2023-03-13T04:01:10.584Z,154.50
2023-03-13T04:03:38.351Z,153.00
2023-03-13T04:06:06.970Z,159.30
2023-03-13T04:08:35.880Z,159.60
2023-03-13T04:11:03.917Z,155.77
2023-03-13T04:13:31.512Z,154.53
2023-03-13T04:15:59.120Z,159.63
2023-03-13T04:18:26.819Z,158.00
2023-03-13T04:21:02.394Z,158.57
2023-03-13T04:23:30.174Z,157.17
2023-03-13T04:25:59.151Z,157.13
2023-03-13T04:28:26.791Z,159.43
2023-03-13T04:30:57.217Z,159.87
2023-03-13T04:33:25.162Z,158.47
2023-03-13T04:35:52.893Z,158.77
2023-03-13T04:38:20.613Z,154.50
2023-03-13T04:40:48.584Z,154.90
2023-03-13T04:43:17.615Z,157.27
2023-03-13T04:45:45.248Z,153.43
2023-03-13T04:48:13.032Z,155.00
2023-03-13T04:50:40.822Z,150.73
2023-03-13T04:53:08.463Z,152.63
2023-03-13T04:55:36.104Z,154.90
2023-03-13T04:58:03.826Z,156.50
2023-03-13T05:00:33.000Z,155.80
2023-03-13T05:03:00.593Z,158.50
2023-03-13T05:05:28.313Z,156.40
2023-03-13T05:07:55.976Z,157.90
2023-03-13T05:10:23.746Z,154.77
2023-03-13T05:12:51.507Z,154.93
2023-03-13T05:15:19.114Z,161.87
2023-03-13T05:17:48.590Z,152.07
2023-03-13T05:20:16.348Z,153.67
2023-03-13T05:22:43.939Z,154.40
2023-03-13T05:25:11.526Z,154.67
2023-03-13T05:27:39.079Z,155.80
2023-03-13T05:30:07.841Z,152.43
2023-03-13T05:32:35.492Z,152.20
2023-03-13T05:35:04.676Z,152.50
2023-03-13T05:37:32.338Z,151.40
2023-03-13T05:40:00.441Z,155.30
2023-03-13T05:42:28.158Z,151.50
2023-03-13T05:44:55.928Z,159.90
2023-03-13T05:47:23.511Z,156.53
2023-03-13T05:49:51.144Z,159.07
2023-03-13T05:52:20.145Z,157.33
2023-03-13T05:54:47.836Z,155.93
2023-03-13T05:57:15.526Z,154.90
2023-03-13T05:59:43.121Z,154.23
2023-03-13T06:02:11.081Z,152.47
2023-03-13T06:04:39.362Z,157.80
2023-03-13T06:07:07.065Z,156.60
2023-03-13T06:09:36.041Z,160.97
2023-03-13T06:12:04.346Z,160.37
2023-03-13T06:14:31.968Z,162.03
2023-03-13T06:16:59.615Z,156.20
2023-03-13T06:19:27.266Z,163.10
2023-03-13T06:21:54.936Z,157.60
2023-03-13T06:24:22.658Z,161.63
2023-03-13T06:26:52.102Z,164.10
2023-03-13T06:29:19.846Z,158.67
2023-03-13T06:31:47.590Z,168.07
2023-03-13T06:34:15.539Z,165.33
2023-03-13T06:36:43.173Z,160.73
2023-03-13T06:39:11.009Z,157.60
2023-03-13T06:41:38.640Z,161.30
2023-03-13T06:44:07.677Z,162.80
2023-03-13T06:46:35.362Z,161.30
2023-03-13T06:49:05.668Z,163.13
2023-03-13T06:51:34.033Z,159.60
2023-03-13T06:54:03.527Z,160.50
2023-03-13T06:56:32.180Z,171.30
2023-03-13T06:59:00.236Z,160.17
2023-03-13T07:01:29.349Z,162.10
2023-03-13T07:03:57.120Z,171.43
2023-03-13T07:06:24.769Z,160.23
2023-03-13T07:08:52.374Z,165.77
2023-03-13T07:11:19.976Z,161.70
2023-03-13T07:13:47.606Z,168.90
2023-03-13T07:16:15.318Z,172.77
2023-03-13T07:18:44.654Z,170.60
2023-03-13T07:21:12.968Z,176.47
2023-03-13T07:23:40.813Z,179.53
2023-03-13T07:26:11.922Z,171.13
2023-03-13T07:28:39.994Z,172.03
2023-03-13T07:31:09.445Z,173.37
2023-03-13T07:33:37.040Z,171.13
2023-03-13T07:36:06.993Z,173.40
2023-03-13T07:38:35.287Z,174.53
2023-03-13T07:41:03.079Z,176.03
2023-03-13T07:43:31.470Z,180.73
2023-03-13T07:46:00.764Z,187.47
2023-03-13T07:48:31.193Z,184.80
2023-03-13T07:50:59.177Z,186.63
2023-03-13T07:53:29.016Z,184.30
2023-03-13T07:55:59.129Z,187.97
2023-03-13T07:58:28.321Z,193.43
2023-03-13T08:00:56.290Z,189.63
2023-03-13T08:03:24.896Z,198.70
2023-03-13T08:05:59.502Z,201.00
2023-03-13T08:08:29.448Z,207.57
2023-03-13T08:11:01.337Z,211.60
2023-03-13T08:13:29.178Z,212.03
2023-03-13T08:16:04.260Z,214.53
2023-03-13T08:18:34.826Z,216.27
2023-03-13T08:21:04.067Z,217.27
2023-03-13T08:23:33.489Z,223.70
2023-03-13T08:26:06.860Z,233.40
2023-03-13T08:28:35.201Z,236.13
2023-03-13T08:31:09.312Z,234.33
2023-03-13T08:33:37.108Z,236.40
2023-03-13T08:36:17.229Z,249.90
2023-03-13T08:38:46.883Z,245.43
2023-03-13T08:41:15.857Z,250.30
2023-03-13T08:43:43.489Z,256.80
2023-03-13T08:46:11.331Z,264.10
2023-03-13T08:48:39.688Z,262.00
2023-03-13T08:51:09.728Z,267.57
2023-03-13T08:53:39.212Z,264.13
2023-03-13T08:56:09.851Z,265.87
2023-03-13T08:58:37.743Z,267.07
2023-03-13T09:01:07.569Z,261.03
2023-03-13T09:03:35.426Z,271.53
2023-03-13T09:06:03.484Z,283.60
2023-03-13T09:08:32.223Z,265.10
2023-03-13T09:11:01.200Z,272.23
2023-03-13T09:13:31.497Z,270.47
2023-03-13T09:16:00.596Z,275.90
2023-03-13T09:18:29.823Z,273.47
2023-03-13T09:20:57.848Z,279.67
2023-03-13T09:23:26.136Z,300.47
2023-03-13T09:25:55.458Z,291.20
2023-03-13T09:28:23.811Z,300.73
2023-03-13T09:30:53.102Z,297.70
2023-03-13T09:33:22.966Z,285.90
2023-03-13T09:35:51.311Z,300.37
2023-03-13T09:38:19.436Z,306.97
2023-03-13T09:41:04.889Z,307.90
2023-03-13T09:43:43.635Z,327.57
2023-03-13T09:46:19.326Z,323.73
2023-03-13T09:48:51.119Z,329.03
2023-03-13T09:51:22.449Z,340.80
2023-03-13T09:53:56.364Z,340.43
2023-03-13T09:56:26.279Z,343.17
2023-03-13T09:58:58.016Z,339.00
2023-03-13T10:01:31.206Z,342.90
2023-03-13T10:04:07.549Z,347.37
2023-03-13T10:06:41.291Z,352.30
2023-03-13T10:09:21.519Z,341.93
2023-03-13T10:11:56.238Z,332.57
2023-03-13T10:14:30.791Z,318.13
2023-03-13T10:17:05.830Z,298.50
2023-03-13T10:19:37.732Z,302.40
2023-03-13T10:22:13.223Z,273.90
2023-03-13T10:24:47.907Z,274.93
2023-03-13T10:27:16.658Z,267.60
2023-03-13T10:29:44.631Z,247.23
2023-03-13T10:32:15.850Z,243.17
2023-03-13T10:34:51.176Z,234.57
2023-03-13T10:37:23.312Z,226.83
2023-03-13T10:39:51.228Z,206.63
2023-03-13T10:42:25.044Z,199.00
2023-03-13T10:44:59.065Z,184.23
2023-03-13T10:47:28.804Z,177.83
2023-03-13T10:49:58.913Z,156.93
2023-03-13T10:52:36.648Z,155.40
2023-03-13T10:55:06.323Z,143.47
2023-03-13T10:57:35.980Z,135.67
2023-03-13T11:00:11.213Z,128.40
2023-03-13T11:02:40.759Z,123.27
2023-03-13T11:05:31.956Z,122.83
2023-03-13T11:07:59.711Z,105.47
2023-03-13T11:10:29.840Z,102.37
2023-03-13T11:12:59.081Z,96.03
2023-03-13T11:15:32.611Z,85.87
2023-03-13T11:18:07.307Z,82.03
2023-03-13T11:20:37.924Z,80.73
2023-03-13T11:23:20.682Z,70.97
2023-03-13T11:26:01.125Z,64.77
2023-03-13T11:28:40.409Z,63.83
2023-03-13T11:31:12.530Z,62.20
2023-03-13T11:33:53.715Z,65.57
2023-03-13T11:36:25.650Z,58.90
2023-03-13T11:39:02.220Z,62.73
2023-03-13T11:41:48.925Z,61.37
2023-03-13T11:44:30.820Z,60.57
2023-03-13T11:47:17.611Z,55.13
2023-03-13T11:49:58.993Z,57.07
2023-03-13T11:52:41.602Z,53.50
2023-03-13T11:55:26.357Z,54.73
2023-03-13T11:58:06.488Z,54.03
2023-03-13T12:00:38.578Z,53.30
2023-03-13T12:03:17.204Z,50.10
2023-03-13T12:05:51.540Z,50.07
2023-03-13T12:08:22.928Z,49.10
2023-03-13T12:11:01.097Z,48.83
2023-03-13T12:13:32.729Z,49.40
2023-03-13T12:16:07.918Z,47.83
2023-03-13T12:18:39.039Z,49.00
2023-03-13T12:21:19.394Z,48.80
2023-03-13T12:23:53.666Z,48.30
2023-03-13T12:26:23.120Z,48.83
2023-03-13T12:29:04.120Z,46.70
2023-03-13T12:31:37.130Z,46.87
2023-03-13T12:34:13.640Z,46.80
2023-03-13T12:36:47.680Z,44.53
2023-03-13T12:39:27.315Z,42.97
2023-03-13T12:42:08.523Z,44.80
2023-03-13T12:44:36.628Z,44.43
2023-03-13T12:47:10.860Z,47.10
2023-03-13T12:50:23.858Z,44.60
2023-03-13T12:53:21.635Z,44.50
2023-03-13T12:56:10.364Z,42.83
2023-03-13T12:58:49.593Z,40.90
2023-03-13T13:01:27.123Z,39.13
2023-03-13T13:03:58.999Z,37.83
2023-03-13T13:06:28.211Z,37.20
2023-03-13T13:09:15.731Z,38.70
2023-03-13T13:11:49.209Z,35.00
2023-03-13T13:14:57.895Z,35.50
2023-03-13T13:17:49.945Z,32.83
2023-03-13T13:20:31.966Z,35.57
2023-03-13T13:23:22.654Z,34.57
2023-03-13T13:25:52.385Z,34.27
2023-03-13T13:28:34.536Z,34.20
2023-03-13T13:31:02.522Z,34.70
2023-03-13T13:33:39.006Z,34.63
2023-03-13T13:36:30.863Z,32.03
2023-03-13T13:38:59.372Z,32.70
2023-03-13T13:41:38.782Z,32.50
2023-03-13T13:44:30.948Z,31.87
2023-03-13T13:47:01.928Z,32.93
2023-03-13T13:49:55.276Z,35.60
2023-03-13T13:52:41.717Z,33.87
2023-03-13T13:55:42.350Z,32.10
2023-03-13T13:58:19.601Z,33.57
2023-03-13T14:00:53.699Z,32.57
2023-03-13T14:03:23.684Z,32.00
2023-03-13T14:05:55.118Z,32.57
2023-03-13T14:08:26.896Z,28.67
2023-03-13T14:11:05.821Z,31.20
2023-03-13T14:13:34.774Z,28.53
2023-03-13T14:16:24.368Z,28.07
2023-03-13T14:18:54.006Z,30.47
2023-03-13T14:21:23.777Z,28.30
2023-03-13T14:23:51.888Z,27.83
2023-03-13T14:26:21.468Z,28.67
2023-03-13T14:28:52.273Z,29.57
2023-03-13T14:31:29.173Z,28.60
2023-03-13T14:33:58.141Z,28.27
2023-03-13T14:36:25.955Z,35.53
2023-03-13T14:38:55.865Z,28.93
2023-03-13T14:41:31.853Z,27.87
2023-03-13T14:44:15.021Z,26.90
2023-03-13T14:46:44.864Z,25.47
2023-03-13T14:49:19.683Z,26.37
2023-03-13T14:51:50.877Z,32.57
2023-03-13T14:54:30.657Z,30.03
2023-03-13T14:57:07.574Z,25.70
2023-03-13T14:59:37.118Z,24.83
2023-03-13T15:02:16.364Z,25.73
2023-03-13T15:04:56.006Z,25.30
2023-03-13T15:07:24.687Z,25.77
2023-03-13T15:09:52.736Z,26.30
2023-03-13T15:12:23.125Z,23.40
2023-03-13T15:14:53.992Z,26.20
2023-03-13T15:17:24.661Z,25.43
2023-03-13T15:19:54.155Z,22.57
2023-03-13T15:22:27.986Z,20.93
2023-03-13T15:25:05.662Z,23.00
2023-03-13T15:27:35.377Z,21.50
2023-03-13T15:30:04.980Z,20.77
2023-03-13T15:32:35.473Z,24.13
2023-03-13T15:35:03.703Z,20.57
2023-03-13T15:37:32.171Z,18.33
2023-03-13T15:39:59.885Z,21.80
2023-03-13T15:42:27.505Z,24.97
2023-03-13T15:44:55.203Z,25.70
2023-03-13T15:47:24.653Z,19.33
2023-03-13T15:49:52.353Z,18.20
2023-03-13T15:52:22.765Z,27.97
2023-03-13T15:54:51.798Z,19.50
2023-03-13T15:57:22.907Z,18.43
2023-03-13T15:59:51.347Z,29.90
2023-03-13T16:02:20.515Z,22.73
2023-03-13T16:04:49.707Z,35.53
2023-03-13T16:07:19.748Z,21.80
2023-03-13T16:09:48.415Z,24.60
2023-03-13T16:12:16.022Z,23.03
2023-03-13T16:14:43.821Z,24.93
2023-03-13T16:17:15.348Z,21.03
2023-03-13T16:19:43.079Z,21.50
2023-03-13T16:22:12.735Z,24.47
2023-03-13T16:24:40.942Z,20.70
2023-03-13T16:27:15.310Z,17.13
2023-03-13T16:29:43.012Z,19.33
2023-03-13T16:32:12.972Z,21.00
2023-03-13T16:34:40.714Z,20.13
2023-03-13T16:37:15.671Z,20.90
2023-03-13T16:39:44.307Z,20.17
2023-03-13T16:42:12.848Z,25.73
2023-03-13T16:44:41.354Z,24.57
2023-03-13T16:47:21.951Z,21.37
2023-03-13T16:49:49.686Z,22.90
2023-03-13T16:52:19.325Z,20.60
2023-03-13T16:54:47.510Z,22.57
2023-03-13T16:57:18.159Z,28.90
2023-03-13T16:59:46.419Z,21.93
2023-03-13T17:02:16.309Z,24.00
2023-03-13T17:04:45.009Z,18.53
2023-03-13T17:07:20.531Z,16.00
2023-03-13T17:09:48.277Z,30.83
2023-03-13T17:12:15.884Z,29.53
2023-03-13T17:14:43.652Z,29.57
2023-03-13T17:17:15.875Z,18.70
2023-03-13T17:19:43.585Z,27.73
2023-03-13T17:22:13.689Z,21.37
2023-03-13T17:24:43.164Z,19.63
2023-03-13T17:27:13.485Z,23.50
2023-03-13T17:29:41.340Z,30.97
2023-03-13T17:32:11.074Z,20.43
2023-03-13T17:34:38.753Z,30.57
2023-03-13T17:37:15.661Z,23.00
2023-03-13T17:39:45.182Z,25.80
2023-03-13T17:42:13.600Z,30.43
2023-03-13T17:44:41.578Z,28.90
2023-03-13T17:47:14.049Z,22.40
2023-03-13T17:49:42.032Z,24.63
2023-03-13T17:52:13.869Z,25.40
2023-03-13T17:54:41.788Z,26.40
2023-03-13T17:57:16.289Z,23.00
2023-03-13T17:59:44.807Z,32.43
2023-03-13T18:02:13.613Z,32.37
2023-03-13T18:04:41.905Z,28.93
2023-03-13T18:07:16.912Z,28.13
2023-03-13T18:09:47.661Z,20.70
2023-03-13T18:12:17.354Z,31.60
2023-03-13T18:14:45.091Z,31.20
2023-03-13T18:17:16.643Z,21.17
2023-03-13T18:19:44.378Z,23.90
2023-03-13T18:22:15.088Z,24.83
2023-03-13T18:24:42.997Z,21.73
2023-03-13T18:27:17.016Z,28.57
2023-03-13T18:29:45.572Z,28.80
2023-03-13T18:32:14.625Z,21.80
2023-03-13T18:34:42.784Z,28.40
2023-03-13T18:37:20.808Z,29.13
2023-03-13T18:39:49.954Z,29.40
2023-03-13T18:42:19.275Z,24.53
2023-03-13T18:44:46.935Z,18.43
2023-03-13T18:47:16.117Z,24.83
2023-03-13T18:49:43.967Z,26.87
2023-03-13T18:52:12.222Z,31.30
2023-03-13T18:54:40.082Z,28.07
2023-03-13T18:57:14.020Z,29.80
2023-03-13T18:59:43.471Z,28.87
2023-03-13T19:02:14.138Z,26.33
2023-03-13T19:04:42.339Z,30.00
2023-03-13T19:07:15.247Z,32.43
2023-03-13T19:09:44.621Z,25.00
2023-03-13T19:12:15.378Z,27.13
2023-03-13T19:14:44.620Z,26.30
2023-03-13T19:17:26.808Z,27.83
2023-03-13T19:19:57.289Z,31.40
2023-03-13T19:22:25.958Z,30.90
2023-03-13T19:24:53.744Z,25.80
2023-03-13T19:27:21.834Z,28.53
2023-03-13T19:29:50.826Z,29.37
2023-03-13T19:32:19.572Z,33.10
2023-03-13T19:34:47.266Z,25.57
2023-03-13T19:37:16.894Z,30.23
2023-03-13T19:39:44.614Z,41.73
2023-03-13T19:42:12.306Z,34.40
2023-03-13T19:44:40.286Z,24.30
2023-03-13T19:47:14.332Z,21.83
2023-03-13T19:49:42.349Z,24.53
2023-03-13T19:52:09.980Z,26.23
2023-03-13T19:54:37.563Z,24.10
2023-03-13T19:57:05.194Z,32.07
2023-03-13T19:59:35.175Z,24.47
2023-03-13T20:02:04.198Z,30.30
2023-03-13T20:04:34.268Z,25.43
2023-03-13T20:07:02.326Z,26.77
2023-03-13T20:09:29.968Z,17.63
2023-03-13T20:11:57.627Z,22.50
2023-03-13T20:14:25.228Z,33.27
2023-03-13T20:16:52.861Z,26.13
2023-03-13T20:19:22.532Z,26.37
2023-03-13T20:21:52.382Z,22.73
2023-03-13T20:24:20.009Z,30.70
2023-03-13T20:26:47.614Z,29.00
2023-03-13T20:29:15.241Z,27.63
2023-03-13T20:31:42.850Z,26.80
2023-03-13T20:34:10.457Z,22.07
2023-03-13T20:36:38.059Z,26.93
2023-03-13T20:39:08.097Z,17.70
2023-03-13T20:41:35.780Z,25.73
2023-03-13T20:44:03.363Z,24.93
2023-03-13T20:46:31.084Z,25.50
2023-03-13T20:48:59.145Z,19.00
2023-03-13T20:51:27.717Z,31.30
2023-03-13T20:53:55.335Z,19.50
2023-03-13T20:56:24.363Z,25.03
2023-03-13T20:58:51.973Z,26.10
2023-03-13T21:01:19.855Z,24.77
2023-03-13T21:03:47.966Z,19.90
2023-03-13T21:06:17.728Z,20.77
2023-03-13T21:08:46.016Z,25.83
2023-03-13T21:11:14.404Z,27.87
2023-03-13T21:13:43.506Z,19.57
2023-03-13T21:16:12.841Z,29.20
2023-03-13T21:18:40.703Z,21.60
2023-03-13T21:21:10.403Z,21.67
2023-03-13T21:23:38.989Z,26.43
2023-03-13T21:26:07.717Z,21.20
2023-03-13T21:28:35.756Z,17.30
2023-03-13T21:31:11.229Z,24.93
2023-03-13T21:33:39.113Z,22.17
2023-03-13T21:36:07.484Z,23.33
2023-03-13T21:38:35.887Z,24.83
2023-03-13T21:41:08.231Z,19.57
2023-03-13T21:43:37.410Z,33.27
2023-03-13T21:46:05.418Z,28.23
2023-03-13T21:48:34.467Z,27.77
2023-03-13T21:51:02.063Z,29.20
2023-03-13T21:53:29.829Z,30.80
2023-03-13T21:55:57.496Z,24.40
2023-03-13T21:58:25.507Z,22.43
2023-03-13T22:00:54.643Z,20.67
2023-03-13T22:03:22.875Z,23.00
2023-03-13T22:05:51.875Z,23.07
2023-03-13T22:08:19.641Z,26.23
2023-03-13T22:10:49.005Z,20.83
2023-03-13T22:13:16.830Z,28.40
2023-03-13T22:15:46.396Z,23.80
2023-03-13T22:18:14.540Z,20.07
2023-03-13T22:20:42.397Z,25.83
2023-03-13T22:23:12.006Z,22.80
2023-03-13T22:25:40.395Z,19.87
2023-03-13T22:28:08.240Z,33.67
2023-03-13T22:30:35.969Z,22.70
2023-03-13T22:33:03.956Z,18.57
2023-03-13T22:35:31.574Z,23.37
2023-03-13T22:37:59.134Z,25.50
2023-03-13T22:40:28.136Z,19.90
2023-03-13T22:42:55.810Z,23.57
2023-03-13T22:45:23.646Z,16.27
2023-03-13T22:47:51.778Z,23.10
2023-03-13T22:50:20.886Z,21.90
2023-03-13T22:52:48.540Z,26.90
2023-03-13T22:55:16.215Z,23.10
2023-03-13T22:57:45.331Z,30.53
2023-03-13T23:00:14.355Z,26.40
2023-03-13T23:02:41.926Z,19.30
2023-03-13T23:05:10.308Z,22.40
2023-03-13T23:07:40.410Z,26.77
2023-03-13T23:10:09.671Z,21.43
2023-03-13T23:12:37.830Z,23.40
2023-03-13T23:15:08.301Z,20.70
2023-03-13T23:17:36.583Z,32.17
2023-03-13T23:20:10.562Z,21.63
2023-03-13T23:22:38.177Z,20.20
2023-03-13T23:25:06.587Z,20.30
2023-03-13T23:27:34.346Z,17.93
2023-03-13T23:30:04.066Z,19.87
2023-03-13T23:32:37.465Z,20.40
2023-03-13T23:35:06.022Z,19.63
2023-03-13T23:37:34.295Z,28.80
2023-03-13T23:40:02.816Z,32.40
2023-03-13T23:42:30.753Z,26.43
2023-03-13T23:44:58.408Z,29.83
2023-03-13T23:47:25.994Z,20.60
2023-03-13T23:49:54.968Z,26.97
2023-03-13T23:52:22.625Z,28.10
2023-03-13T23:54:51.533Z,21.20
2023-03-13T23:57:19.160Z,24.00
2023-03-13T23:59:46.849Z,26.97
